Terminal Aerodrome Forecast
Issued by NWS Bismarck, ND

Home | Current Version | Previous Version | Text Only | Print | Product List | Glossary Off
Versions: 1 2 3 4 5 6 7 8 9 10 11 12 13 14 15 16 17 18 19 20 21 22 23 24 25 26 27 28 29 30

893
FTUS43 KBIS 230528
TAFBIS
TAF
KBIS 230528Z 2306/2406 08015G21KT P6SM SCT025 OVC035
     FM230800 08015G20KT P6SM VCSH OVC025
     FM231100 09014G20KT P6SM VCSH SCT008 OVC015
     FM231600 10016G24KT 5SM -SHRA BR OVC007
     FM240100 10013G18KT P6SM -SHRA BKN004 OVC007=

USA.gov is the U.S. government's official web portal to all federal, state and local government web resources and services.